sensor_id;sensor_type;location;lat;lon;timestamp;P1;durP1;ratioP1;P2;durP2;ratioP2
23181;SDS011;11759;51.282;6.642;2023-02-05T00:01:20;74.47;;;20.95;;
23181;SDS011;11759;51.282;6.642;2023-02-05T00:03:47;54.00;;;19.73;;
23181;SDS011;11759;51.282;6.642;2023-02-05T00:06:14;62.85;;;20.05;;
23181;SDS011;11759;51.282;6.642;2023-02-05T00:08:41;71.47;;;21.55;;
23181;SDS011;11759;51.282;6.642;2023-02-05T00:11:08;72.70;;;20.88;;
23181;SDS011;11759;51.282;6.642;2023-02-05T00:13:35;65.97;;;21.45;;
23181;SDS011;11759;51.282;6.642;2023-02-05T00:16:09;73.95;;;19.90;;
23181;SDS011;11759;51.282;6.642;2023-02-05T00:18:37;64.05;;;20.05;;
23181;SDS011;11759;51.282;6.642;2023-02-05T00:21:04;68.88;;;22.02;;
23181;SDS011;11759;51.282;6.642;2023-02-05T00:23:31;87.03;;;21.20;;
23181;SDS011;11759;51.282;6.642;2023-02-05T00:25:58;72.72;;;20.95;;
23181;SDS011;11759;51.282;6.642;2023-02-05T00:28:25;64.55;;;20.98;;
23181;SDS011;11759;51.282;6.642;2023-02-05T00:30:52;70.60;;;20.08;;
23181;SDS011;11759;51.282;6.642;2023-02-05T00:33:18;84.53;;;20.90;;
23181;SDS011;11759;51.282;6.642;2023-02-05T00:35:47;85.50;;;21.80;;
23181;SDS011;11759;51.282;6.642;2023-02-05T00:38:14;83.18;;;20.23;;
23181;SDS011;11759;51.282;6.642;2023-02-05T00:40:41;81.97;;;21.05;;
23181;SDS011;11759;51.282;6.642;2023-02-05T00:43:08;82.45;;;21.00;;
23181;SDS011;11759;51.282;6.642;2023-02-05T00:45:35;61.47;;;19.75;;
23181;SDS011;11759;51.282;6.642;2023-02-05T00:48:05;71.18;;;19.75;;
23181;SDS011;11759;51.282;6.642;2023-02-05T00:50:32;72.10;;;19.98;;
23181;SDS011;11759;51.282;6.642;2023-02-05T00:52:59;75.70;;;18.45;;
23181;SDS011;11759;51.282;6.642;2023-02-05T00:55:26;56.38;;;18.27;;
23181;SDS011;11759;51.282;6.642;2023-02-05T00:57:53;66.60;;;18.85;;
23181;SDS011;11759;51.282;6.642;2023-02-05T01:00:20;80.95;;;18.33;;
23181;SDS011;11759;51.282;6.642;2023-02-05T01:02:47;64.53;;;18.23;;
23181;SDS011;11759;51.282;6.642;2023-02-05T01:05:13;73.22;;;17.63;;
23181;SDS011;11759;51.282;6.642;2023-02-05T01:07:40;79.68;;;19.25;;
23181;SDS011;11759;51.282;6.642;2023-02-05T01:10:07;56.88;;;17.88;;
23181;SDS011;11759;51.282;6.642;2023-02-05T01:12:33;74.25;;;20.23;;
23181;SDS011;11759;51.282;6.642;2023-02-05T01:15:00;75.75;;;21.77;;
23181;SDS011;11759;51.282;6.642;2023-02-05T01:17:27;69.63;;;20.27;;
23181;SDS011;11759;51.282;6.642;2023-02-05T01:19:53;65.75;;;20.25;;
23181;SDS011;11759;51.282;6.642;2023-02-05T01:22:20;56.30;;;18.75;;
23181;SDS011;11759;51.282;6.642;2023-02-05T01:24:48;67.70;;;21.20;;
23181;SDS011;11759;51.282;6.642;2023-02-05T01:27:15;63.90;;;19.45;;
23181;SDS011;11759;51.282;6.642;2023-02-05T01:29:41;71.78;;;21.45;;
23181;SDS011;11759;51.282;6.642;2023-02-05T01:32:08;66.38;;;20.67;;
23181;SDS011;11759;51.282;6.642;2023-02-05T01:34:34;82.57;;;21.75;;
23181;SDS011;11759;51.282;6.642;2023-02-05T01:37:01;80.55;;;21.65;;
23181;SDS011;11759;51.282;6.642;2023-02-05T01:39:28;71.30;;;20.83;;
23181;SDS011;11759;51.282;6.642;2023-02-05T01:41:55;61.95;;;22.25;;
23181;SDS011;11759;51.282;6.642;2023-02-05T01:44:23;73.38;;;22.35;;
23181;SDS011;11759;51.282;6.642;2023-02-05T01:46:50;77.55;;;22.20;;
23181;SDS011;11759;51.282;6.642;2023-02-05T01:52:17;70.07;;;21.55;;
23181;SDS011;11759;51.282;6.642;2023-02-05T01:54:44;72.53;;;22.75;;
23181;SDS011;11759;51.282;6.642;2023-02-05T01:57:16;73.45;;;24.10;;
23181;SDS011;11759;51.282;6.642;2023-02-05T01:59:44;89.18;;;24.00;;
23181;SDS011;11759;51.282;6.642;2023-02-05T02:02:12;85.82;;;23.98;;
23181;SDS011;11759;51.282;6.642;2023-02-05T02:04:40;78.95;;;24.65;;
23181;SDS011;11759;51.282;6.642;2023-02-05T02:07:09;90.22;;;23.80;;
23181;SDS011;11759;51.282;6.642;2023-02-05T02:09:42;89.65;;;25.33;;
23181;SDS011;11759;51.282;6.642;2023-02-05T02:12:10;86.28;;;24.45;;
23181;SDS011;11759;51.282;6.642;2023-02-05T02:14:39;78.93;;;24.35;;
23181;SDS011;11759;51.282;6.642;2023-02-05T02:17:08;69.68;;;24.13;;
23181;SDS011;11759;51.282;6.642;2023-02-05T02:22:10;83.07;;;23.25;;
23181;SDS011;11759;51.282;6.642;2023-02-05T02:25:06;83.47;;;24.92;;
23181;SDS011;11759;51.282;6.642;2023-02-05T02:30:26;75.05;;;23.48;;
23181;SDS011;11759;51.282;6.642;2023-02-05T02:33:05;80.80;;;23.95;;
23181;SDS011;11759;51.282;6.642;2023-02-05T02:35:38;75.05;;;24.10;;
23181;SDS011;11759;51.282;6.642;2023-02-05T02:40:54;89.72;;;24.67;;
23181;SDS011;11759;51.282;6.642;2023-02-05T02:43:25;87.72;;;24.75;;
23181;SDS011;11759;51.282;6.642;2023-02-05T02:46:16;76.80;;;23.83;;
23181;SDS011;11759;51.282;6.642;2023-02-05T02:48:48;64.88;;;22.88;;
23181;SDS011;11759;51.282;6.642;2023-02-05T02:51:16;70.00;;;23.25;;
23181;SDS011;11759;51.282;6.642;2023-02-05T02:53:46;85.30;;;24.52;;
23181;SDS011;11759;51.282;6.642;2023-02-05T02:56:18;90.30;;;24.90;;
23181;SDS011;11759;51.282;6.642;2023-02-05T02:58:47;82.47;;;24.85;;
23181;SDS011;11759;51.282;6.642;2023-02-05T03:01:17;78.65;;;24.65;;
23181;SDS011;11759;51.282;6.642;2023-02-05T03:03:49;76.88;;;23.00;;
23181;SDS011;11759;51.282;6.642;2023-02-05T03:06:18;78.40;;;23.83;;
23181;SDS011;11759;51.282;6.642;2023-02-05T03:08:57;87.15;;;25.02;;
23181;SDS011;11759;51.282;6.642;2023-02-05T03:11:26;81.82;;;25.33;;
23181;SDS011;11759;51.282;6.642;2023-02-05T03:13:53;72.57;;;25.17;;
23181;SDS011;11759;51.282;6.642;2023-02-05T03:16:24;86.43;;;24.30;;
23181;SDS011;11759;51.282;6.642;2023-02-05T03:18:51;78.13;;;24.50;;
23181;SDS011;11759;51.282;6.642;2023-02-05T03:21:29;87.95;;;26.63;;
23181;SDS011;11759;51.282;6.642;2023-02-05T03:23:59;83.45;;;24.98;;
23181;SDS011;11759;51.282;6.642;2023-02-05T03:29:12;80.30;;;24.80;;
23181;SDS011;11759;51.282;6.642;2023-02-05T03:32:12;94.03;;;25.60;;
23181;SDS011;11759;51.282;6.642;2023-02-05T03:35:34;85.70;;;25.10;;
23181;SDS011;11759;51.282;6.642;2023-02-05T03:48:34;148.10;;;29.70;;
23181;SDS011;11759;51.282;6.642;2023-02-05T03:51:09;146.55;;;32.50;;
23181;SDS011;11759;51.282;6.642;2023-02-05T03:56:27;142.13;;;33.03;;
23181;SDS011;11759;51.282;6.642;2023-02-05T03:59:00;145.30;;;31.17;;
23181;SDS011;11759;51.282;6.642;2023-02-05T04:01:28;165.40;;;33.95;;
23181;SDS011;11759;51.282;6.642;2023-02-05T04:03:54;159.57;;;33.95;;
23181;SDS011;11759;51.282;6.642;2023-02-05T04:06:22;195.32;;;37.13;;
23181;SDS011;11759;51.282;6.642;2023-02-05T04:08:51;158.80;;;35.20;;
23181;SDS011;11759;51.282;6.642;2023-02-05T04:11:17;172.45;;;35.22;;
23181;SDS011;11759;51.282;6.642;2023-02-05T04:13:45;178.07;;;36.83;;
23181;SDS011;11759;51.282;6.642;2023-02-05T04:16:13;193.55;;;42.33;;
23181;SDS011;11759;51.282;6.642;2023-02-05T04:18:39;190.00;;;40.53;;
23181;SDS011;11759;51.282;6.642;2023-02-05T04:21:06;198.70;;;40.72;;
23181;SDS011;11759;51.282;6.642;2023-02-05T04:23:36;209.73;;;41.17;;
23181;SDS011;11759;51.282;6.642;2023-02-05T04:26:03;189.32;;;37.92;;
23181;SDS011;11759;51.282;6.642;2023-02-05T04:28:35;198.93;;;42.42;;
23181;SDS011;11759;51.282;6.642;2023-02-05T04:31:07;197.52;;;40.35;;
23181;SDS011;11759;51.282;6.642;2023-02-05T04:33:36;182.85;;;39.55;;
23181;SDS011;11759;51.282;6.642;2023-02-05T04:36:03;187.10;;;40.40;;
23181;SDS011;11759;51.282;6.642;2023-02-05T04:38:30;195.40;;;39.35;;
23181;SDS011;11759;51.282;6.642;2023-02-05T04:40:57;192.73;;;40.58;;
23181;SDS011;11759;51.282;6.642;2023-02-05T04:43:24;193.45;;;40.17;;
23181;SDS011;11759;51.282;6.642;2023-02-05T04:45:50;177.85;;;37.80;;
23181;SDS011;11759;51.282;6.642;2023-02-05T04:48:17;167.93;;;38.65;;
23181;SDS011;11759;51.282;6.642;2023-02-05T04:50:44;181.05;;;39.50;;
23181;SDS011;11759;51.282;6.642;2023-02-05T04:53:10;178.40;;;37.00;;
23181;SDS011;11759;51.282;6.642;2023-02-05T04:55:37;185.30;;;39.70;;
23181;SDS011;11759;51.282;6.642;2023-02-05T04:58:03;178.32;;;38.03;;
23181;SDS011;11759;51.282;6.642;2023-02-05T05:00:30;188.73;;;37.42;;
23181;SDS011;11759;51.282;6.642;2023-02-05T05:02:57;174.63;;;37.58;;
23181;SDS011;11759;51.282;6.642;2023-02-05T05:05:23;164.55;;;36.28;;
23181;SDS011;11759;51.282;6.642;2023-02-05T05:07:50;167.50;;;38.55;;
23181;SDS011;11759;51.282;6.642;2023-02-05T05:10:17;189.15;;;36.65;;
23181;SDS011;11759;51.282;6.642;2023-02-05T05:12:43;186.45;;;39.08;;
23181;SDS011;11759;51.282;6.642;2023-02-05T05:15:10;198.27;;;41.53;;
23181;SDS011;11759;51.282;6.642;2023-02-05T05:17:36;176.23;;;39.08;;
23181;SDS011;11759;51.282;6.642;2023-02-05T05:20:03;203.00;;;41.22;;
23181;SDS011;11759;51.282;6.642;2023-02-05T05:22:30;212.30;;;40.25;;
23181;SDS011;11759;51.282;6.642;2023-02-05T05:24:56;202.27;;;42.65;;
23181;SDS011;11759;51.282;6.642;2023-02-05T05:27:23;200.55;;;43.50;;
23181;SDS011;11759;51.282;6.642;2023-02-05T05:29:50;214.02;;;45.10;;
23181;SDS011;11759;51.282;6.642;2023-02-05T05:32:16;202.98;;;44.97;;
23181;SDS011;11759;51.282;6.642;2023-02-05T05:34:43;210.45;;;47.05;;
23181;SDS011;11759;51.282;6.642;2023-02-05T05:37:09;210.35;;;46.28;;
23181;SDS011;11759;51.282;6.642;2023-02-05T05:39:36;246.02;;;50.45;;
23181;SDS011;11759;51.282;6.642;2023-02-05T05:42:21;240.52;;;48.63;;
23181;SDS011;11759;51.282;6.642;2023-02-05T05:45:06;236.77;;;49.45;;
23181;SDS011;11759;51.282;6.642;2023-02-05T05:47:33;254.13;;;51.22;;
23181;SDS011;11759;51.282;6.642;2023-02-05T05:49:59;244.43;;;49.42;;
23181;SDS011;11759;51.282;6.642;2023-02-05T05:52:26;253.77;;;49.67;;
23181;SDS011;11759;51.282;6.642;2023-02-05T05:54:52;244.68;;;49.63;;
23181;SDS011;11759;51.282;6.642;2023-02-05T05:57:19;225.88;;;47.97;;
23181;SDS011;11759;51.282;6.642;2023-02-05T05:59:46;219.57;;;48.75;;
23181;SDS011;11759;51.282;6.642;2023-02-05T06:02:12;216.13;;;48.67;;
23181;SDS011;11759;51.282;6.642;2023-02-05T06:04:39;224.75;;;49.92;;
23181;SDS011;11759;51.282;6.642;2023-02-05T06:07:06;254.13;;;50.40;;
23181;SDS011;11759;51.282;6.642;2023-02-05T06:09:32;229.63;;;51.25;;
23181;SDS011;11759;51.282;6.642;2023-02-05T06:11:59;235.75;;;50.83;;
23181;SDS011;11759;51.282;6.642;2023-02-05T06:14:25;234.38;;;50.65;;
23181;SDS011;11759;51.282;6.642;2023-02-05T06:16:53;214.77;;;49.15;;
23181;SDS011;11759;51.282;6.642;2023-02-05T06:19:21;224.95;;;48.63;;
23181;SDS011;11759;51.282;6.642;2023-02-05T06:21:48;223.85;;;49.42;;
23181;SDS011;11759;51.282;6.642;2023-02-05T06:24:14;206.38;;;47.80;;
23181;SDS011;11759;51.282;6.642;2023-02-05T06:26:41;224.27;;;48.72;;
23181;SDS011;11759;51.282;6.642;2023-02-05T06:29:07;223.20;;;47.65;;
23181;SDS011;11759;51.282;6.642;2023-02-05T06:31:34;208.68;;;46.03;;
23181;SDS011;11759;51.282;6.642;2023-02-05T06:34:01;228.30;;;49.60;;
23181;SDS011;11759;51.282;6.642;2023-02-05T06:36:27;214.52;;;46.90;;
23181;SDS011;11759;51.282;6.642;2023-02-05T06:38:54;221.88;;;47.42;;
23181;SDS011;11759;51.282;6.642;2023-02-05T06:41:20;189.05;;;44.80;;
23181;SDS011;11759;51.282;6.642;2023-02-05T06:43:47;196.43;;;43.33;;
23181;SDS011;11759;51.282;6.642;2023-02-05T06:46:13;203.85;;;43.38;;
23181;SDS011;11759;51.282;6.642;2023-02-05T06:48:41;188.88;;;42.05;;
23181;SDS011;11759;51.282;6.642;2023-02-05T06:51:07;177.95;;;41.88;;
23181;SDS011;11759;51.282;6.642;2023-02-05T06:53:34;188.80;;;41.33;;
23181;SDS011;11759;51.282;6.642;2023-02-05T06:56:01;170.93;;;39.05;;
23181;SDS011;11759;51.282;6.642;2023-02-05T06:58:27;171.20;;;40.65;;
23181;SDS011;11759;51.282;6.642;2023-02-05T07:00:54;171.85;;;36.92;;
23181;SDS011;11759;51.282;6.642;2023-02-05T07:03:21;154.05;;;37.55;;
23181;SDS011;11759;51.282;6.642;2023-02-05T07:05:48;158.73;;;35.35;;
23181;SDS011;11759;51.282;6.642;2023-02-05T07:08:15;157.57;;;36.10;;
23181;SDS011;11759;51.282;6.642;2023-02-05T07:10:42;161.15;;;36.17;;
23181;SDS011;11759;51.282;6.642;2023-02-05T07:13:09;160.48;;;37.00;;
23181;SDS011;11759;51.282;6.642;2023-02-05T07:15:36;143.95;;;35.15;;
23181;SDS011;11759;51.282;6.642;2023-02-05T07:18:03;139.60;;;35.97;;
23181;SDS011;11759;51.282;6.642;2023-02-05T07:20:30;158.25;;;37.08;;
23181;SDS011;11759;51.282;6.642;2023-02-05T07:22:57;135.02;;;34.58;;
23181;SDS011;11759;51.282;6.642;2023-02-05T07:25:23;145.10;;;34.92;;
23181;SDS011;11759;51.282;6.642;2023-02-05T07:27:50;142.15;;;36.60;;
23181;SDS011;11759;51.282;6.642;2023-02-05T07:30:17;137.63;;;35.00;;
23181;SDS011;11759;51.282;6.642;2023-02-05T07:32:43;137.77;;;32.95;;
23181;SDS011;11759;51.282;6.642;2023-02-05T07:35:10;139.85;;;33.85;;
23181;SDS011;11759;51.282;6.642;2023-02-05T07:37:36;142.00;;;35.13;;
23181;SDS011;11759;51.282;6.642;2023-02-05T07:40:04;142.23;;;34.97;;
23181;SDS011;11759;51.282;6.642;2023-02-05T07:42:31;115.18;;;33.15;;
23181;SDS011;11759;51.282;6.642;2023-02-05T07:45:00;149.23;;;36.75;;
23181;SDS011;11759;51.282;6.642;2023-02-05T07:47:26;133.90;;;37.72;;
23181;SDS011;11759;51.282;6.642;2023-02-05T07:49:53;145.57;;;37.05;;
23181;SDS011;11759;51.282;6.642;2023-02-05T07:52:20;128.82;;;35.15;;
23181;SDS011;11759;51.282;6.642;2023-02-05T07:54:46;137.48;;;36.75;;
23181;SDS011;11759;51.282;6.642;2023-02-05T07:57:13;137.20;;;34.13;;
23181;SDS011;11759;51.282;6.642;2023-02-05T07:59:40;137.07;;;34.45;;
23181;SDS011;11759;51.282;6.642;2023-02-05T08:02:08;113.88;;;32.58;;
23181;SDS011;11759;51.282;6.642;2023-02-05T08:04:35;118.35;;;34.00;;
23181;SDS011;11759;51.282;6.642;2023-02-05T08:07:01;113.97;;;32.22;;
23181;SDS011;11759;51.282;6.642;2023-02-05T08:09:28;106.10;;;31.20;;
23181;SDS011;11759;51.282;6.642;2023-02-05T08:11:54;129.18;;;31.98;;
23181;SDS011;11759;51.282;6.642;2023-02-05T08:14:21;119.13;;;32.42;;
23181;SDS011;11759;51.282;6.642;2023-02-05T08:16:47;118.45;;;32.35;;
23181;SDS011;11759;51.282;6.642;2023-02-05T08:19:14;107.22;;;31.48;;
23181;SDS011;11759;51.282;6.642;2023-02-05T08:21:43;96.13;;;29.75;;
23181;SDS011;11759;51.282;6.642;2023-02-05T08:24:10;96.60;;;28.10;;
23181;SDS011;11759;51.282;6.642;2023-02-05T08:26:36;56.50;;;18.73;;
23181;SDS011;11759;51.282;6.642;2023-02-05T08:29:03;19.83;;;9.27;;
23181;SDS011;11759;51.282;6.642;2023-02-05T08:31:29;21.40;;;8.00;;
23181;SDS011;11759;51.282;6.642;2023-02-05T08:33:56;19.63;;;6.53;;
23181;SDS011;11759;51.282;6.642;2023-02-05T08:36:25;3.42;;;2.17;;
23181;SDS011;11759;51.282;6.642;2023-02-05T08:38:51;6.25;;;2.15;;
23181;SDS011;11759;51.282;6.642;2023-02-05T08:41:18;10.60;;;1.92;;
23181;SDS011;11759;51.282;6.642;2023-02-05T08:43:46;2.67;;;1.73;;
23181;SDS011;11759;51.282;6.642;2023-02-05T08:46:15;10.55;;;2.13;;
23181;SDS011;11759;51.282;6.642;2023-02-05T08:48:44;3.53;;;1.52;;
23181;SDS011;11759;51.282;6.642;2023-02-05T08:51:12;7.00;;;2.20;;
23181;SDS011;11759;51.282;6.642;2023-02-05T08:53:39;1.75;;;1.30;;
23181;SDS011;11759;51.282;6.642;2023-02-05T08:56:06;7.35;;;1.90;;
23181;SDS011;11759;51.282;6.642;2023-02-05T08:58:36;8.00;;;1.63;;
23181;SDS011;11759;51.282;6.642;2023-02-05T09:01:04;6.35;;;1.70;;
23181;SDS011;11759;51.282;6.642;2023-02-05T09:03:33;9.27;;;2.05;;
23181;SDS011;11759;51.282;6.642;2023-02-05T09:06:00;5.65;;;1.90;;
23181;SDS011;11759;51.282;6.642;2023-02-05T09:08:30;11.95;;;1.90;;
23181;SDS011;11759;51.282;6.642;2023-02-05T09:10:56;4.22;;;1.42;;
23181;SDS011;11759;51.282;6.642;2023-02-05T09:13:23;7.32;;;1.90;;
23181;SDS011;11759;51.282;6.642;2023-02-05T09:15:50;6.97;;;1.55;;
23181;SDS011;11759;51.282;6.642;2023-02-05T09:18:17;8.18;;;1.73;;
23181;SDS011;11759;51.282;6.642;2023-02-05T09:20:45;6.80;;;1.50;;
23181;SDS011;11759;51.282;6.642;2023-02-05T09:23:13;12.43;;;2.00;;
23181;SDS011;11759;51.282;6.642;2023-02-05T09:25:41;11.45;;;2.20;;
23181;SDS011;11759;51.282;6.642;2023-02-05T09:28:09;6.72;;;1.42;;
23181;SDS011;11759;51.282;6.642;2023-02-05T09:30:37;10.57;;;1.90;;
23181;SDS011;11759;51.282;6.642;2023-02-05T09:33:04;11.93;;;2.35;;
23181;SDS011;11759;51.282;6.642;2023-02-05T09:35:34;14.07;;;2.25;;
23181;SDS011;11759;51.282;6.642;2023-02-05T09:38:01;7.25;;;1.27;;
23181;SDS011;11759;51.282;6.642;2023-02-05T09:40:30;22.92;;;2.00;;
23181;SDS011;11759;51.282;6.642;2023-02-05T09:50:56;16.55;;;2.75;;
23181;SDS011;11759;51.282;6.642;2023-02-05T09:53:23;10.80;;;2.05;;
23181;SDS011;11759;51.282;6.642;2023-02-05T09:55:53;13.40;;;2.33;;
23181;SDS011;11759;51.282;6.642;2023-02-05T09:58:24;20.48;;;2.30;;
23181;SDS011;11759;51.282;6.642;2023-02-05T10:00:55;15.40;;;2.70;;
23181;SDS011;11759;51.282;6.642;2023-02-05T10:03:43;14.27;;;2.60;;
23181;SDS011;11759;51.282;6.642;2023-02-05T10:11:57;10.52;;;2.05;;
23181;SDS011;11759;51.282;6.642;2023-02-05T10:30:50;11.00;;;1.98;;
23181;SDS011;11759;51.282;6.642;2023-02-05T10:34:09;12.43;;;2.22;;
23181;SDS011;11759;51.282;6.642;2023-02-05T10:36:19;8.32;;;1.88;;
23181;SDS011;11759;51.282;6.642;2023-02-05T10:38:47;8.60;;;2.10;;
23181;SDS011;11759;51.282;6.642;2023-02-05T10:43:47;17.75;;;2.40;;
23181;SDS011;11759;51.282;6.642;2023-02-05T10:46:16;8.32;;;1.70;;
23181;SDS011;11759;51.282;6.642;2023-02-05T10:48:50;12.10;;;2.30;;
23181;SDS011;11759;51.282;6.642;2023-02-05T10:51:30;16.67;;;2.28;;
23181;SDS011;11759;51.282;6.642;2023-02-05T10:53:58;12.10;;;2.05;;
23181;SDS011;11759;51.282;6.642;2023-02-05T10:56:25;23.35;;;2.60;;
23181;SDS011;11759;51.282;6.642;2023-02-05T10:58:53;21.63;;;2.20;;
23181;SDS011;11759;51.282;6.642;2023-02-05T11:01:22;18.48;;;2.83;;
23181;SDS011;11759;51.282;6.642;2023-02-05T11:03:52;15.77;;;1.90;;
23181;SDS011;11759;51.282;6.642;2023-02-05T11:06:36;23.20;;;2.53;;
23181;SDS011;11759;51.282;6.642;2023-02-05T11:11:49;12.57;;;2.05;;
23181;SDS011;11759;51.282;6.642;2023-02-05T11:14:20;18.05;;;2.58;;
23181;SDS011;11759;51.282;6.642;2023-02-05T11:16:51;16.23;;;2.13;;
23181;SDS011;11759;51.282;6.642;2023-02-05T11:19:20;14.18;;;2.15;;
23181;SDS011;11759;51.282;6.642;2023-02-05T11:21:54;25.00;;;3.00;;
23181;SDS011;11759;51.282;6.642;2023-02-05T11:29:41;15.38;;;2.55;;
23181;SDS011;11759;51.282;6.642;2023-02-05T11:32:21;20.95;;;3.15;;
23181;SDS011;11759;51.282;6.642;2023-02-05T11:35:07;17.40;;;2.63;;
23181;SDS011;11759;51.282;6.642;2023-02-05T11:37:42;32.60;;;3.30;;
23181;SDS011;11759;51.282;6.642;2023-02-05T11:40:19;17.13;;;2.92;;
23181;SDS011;11759;51.282;6.642;2023-02-05T11:45:46;21.80;;;3.15;;
23181;SDS011;11759;51.282;6.642;2023-02-05T11:50:47;11.38;;;2.38;;
23181;SDS011;11759;51.282;6.642;2023-02-05T11:53:14;14.73;;;2.65;;
23181;SDS011;11759;51.282;6.642;2023-02-05T11:55:42;19.38;;;3.08;;
23181;SDS011;11759;51.282;6.642;2023-02-05T11:58:22;15.38;;;2.28;;
23181;SDS011;11759;51.282;6.642;2023-02-05T12:01:21;17.10;;;2.28;;
23181;SDS011;11759;51.282;6.642;2023-02-05T12:03:59;14.25;;;2.10;;
23181;SDS011;11759;51.282;6.642;2023-02-05T12:06:36;18.30;;;3.58;;
23181;SDS011;11759;51.282;6.642;2023-02-05T12:09:05;14.50;;;2.45;;
23181;SDS011;11759;51.282;6.642;2023-02-05T12:19:57;19.20;;;2.38;;
23181;SDS011;11759;51.282;6.642;2023-02-05T12:28:15;14.55;;;2.15;;
23181;SDS011;11759;51.282;6.642;2023-02-05T12:36:15;11.30;;;1.50;;
23181;SDS011;11759;51.282;6.642;2023-02-05T12:44:23;16.65;;;1.92;;
23181;SDS011;11759;51.282;6.642;2023-02-05T12:57:57;13.07;;;2.45;;
23181;SDS011;11759;51.282;6.642;2023-02-05T13:00:27;11.95;;;1.67;;
23181;SDS011;11759;51.282;6.642;2023-02-05T13:03:04;17.00;;;2.13;;
23181;SDS011;11759;51.282;6.642;2023-02-05T13:05:38;8.18;;;1.52;;
23181;SDS011;11759;51.282;6.642;2023-02-05T13:11:04;5.18;;;1.33;;
23181;SDS011;11759;51.282;6.642;2023-02-05T13:13:46;16.02;;;1.70;;
23181;SDS011;11759;51.282;6.642;2023-02-05T13:16:22;9.63;;;1.63;;
23181;SDS011;11759;51.282;6.642;2023-02-05T13:22:12;4.80;;;1.83;;
23181;SDS011;11759;51.282;6.642;2023-02-05T13:25:01;8.68;;;2.17;;
23181;SDS011;11759;51.282;6.642;2023-02-05T13:28:16;18.98;;;2.10;;
23181;SDS011;11759;51.282;6.642;2023-02-05T13:33:49;13.43;;;1.75;;
23181;SDS011;11759;51.282;6.642;2023-02-05T13:39:00;10.32;;;1.55;;
23181;SDS011;11759;51.282;6.642;2023-02-05T13:41:40;12.95;;;2.15;;
23181;SDS011;11759;51.282;6.642;2023-02-05T13:47:00;10.05;;;2.00;;
23181;SDS011;11759;51.282;6.642;2023-02-05T13:58:34;10.65;;;1.95;;
23181;SDS011;11759;51.282;6.642;2023-02-05T14:01:13;11.80;;;2.00;;
23181;SDS011;11759;51.282;6.642;2023-02-05T14:03:52;7.45;;;1.48;;
23181;SDS011;11759;51.282;6.642;2023-02-05T14:06:22;8.98;;;1.88;;
23181;SDS011;11759;51.282;6.642;2023-02-05T14:08:57;11.80;;;2.05;;
23181;SDS011;11759;51.282;6.642;2023-02-05T14:11:26;12.85;;;2.38;;
23181;SDS011;11759;51.282;6.642;2023-02-05T14:16:41;11.05;;;1.95;;
23181;SDS011;11759;51.282;6.642;2023-02-05T14:19:20;16.10;;;2.30;;
23181;SDS011;11759;51.282;6.642;2023-02-05T14:21:48;8.68;;;2.05;;
23181;SDS011;11759;51.282;6.642;2023-02-05T14:33:07;11.32;;;1.90;;
23181;SDS011;11759;51.282;6.642;2023-02-05T14:36:41;12.48;;;1.85;;
23181;SDS011;11759;51.282;6.642;2023-02-05T14:38:43;12.30;;;1.98;;
23181;SDS011;11759;51.282;6.642;2023-02-05T14:41:21;12.35;;;1.98;;
23181;SDS011;11759;51.282;6.642;2023-02-05T14:44:12;11.15;;;2.38;;
23181;SDS011;11759;51.282;6.642;2023-02-05T14:47:03;10.25;;;1.92;;
23181;SDS011;11759;51.282;6.642;2023-02-05T14:49:48;11.00;;;2.55;;
23181;SDS011;11759;51.282;6.642;2023-02-05T14:52:22;17.17;;;2.22;;
23181;SDS011;11759;51.282;6.642;2023-02-05T14:54:52;12.80;;;2.42;;
23181;SDS011;11759;51.282;6.642;2023-02-05T15:10:54;12.27;;;2.88;;
23181;SDS011;11759;51.282;6.642;2023-02-05T15:13:22;14.20;;;2.42;;
23181;SDS011;11759;51.282;6.642;2023-02-05T15:18:46;13.95;;;2.33;;
23181;SDS011;11759;51.282;6.642;2023-02-05T15:21:17;21.88;;;3.20;;
23181;SDS011;11759;51.282;6.642;2023-02-05T15:23:54;16.38;;;2.58;;
23181;SDS011;11759;51.282;6.642;2023-02-05T15:27:15;18.20;;;3.22;;
23181;SDS011;11759;51.282;6.642;2023-02-05T15:31:59;14.65;;;2.47;;
23181;SDS011;11759;51.282;6.642;2023-02-05T15:34:37;17.92;;;2.50;;
23181;SDS011;11759;51.282;6.642;2023-02-05T15:39:55;20.73;;;2.42;;
23181;SDS011;11759;51.282;6.642;2023-02-05T15:44:55;26.17;;;3.65;;
23181;SDS011;11759;51.282;6.642;2023-02-05T15:47:23;21.55;;;2.80;;
23181;SDS011;11759;51.282;6.642;2023-02-05T15:49:52;24.88;;;3.65;;
23181;SDS011;11759;51.282;6.642;2023-02-05T15:52:21;22.58;;;2.78;;
23181;SDS011;11759;51.282;6.642;2023-02-05T15:54:50;27.60;;;3.08;;
23181;SDS011;11759;51.282;6.642;2023-02-05T15:57:23;22.92;;;3.60;;
23181;SDS011;11759;51.282;6.642;2023-02-05T15:59:53;21.60;;;3.17;;
23181;SDS011;11759;51.282;6.642;2023-02-05T16:02:21;31.55;;;3.45;;
23181;SDS011;11759;51.282;6.642;2023-02-05T16:09:52;31.23;;;3.85;;
23181;SDS011;11759;51.282;6.642;2023-02-05T16:12:22;22.25;;;3.35;;
23181;SDS011;11759;51.282;6.642;2023-02-05T16:17:30;24.30;;;3.55;;
23181;SDS011;11759;51.282;6.642;2023-02-05T16:20:19;34.45;;;4.20;;
23181;SDS011;11759;51.282;6.642;2023-02-05T16:23:02;21.10;;;3.37;;
23181;SDS011;11759;51.282;6.642;2023-02-05T16:25:45;28.05;;;3.10;;
23181;SDS011;11759;51.282;6.642;2023-02-05T16:28:16;20.42;;;3.10;;
23181;SDS011;11759;51.282;6.642;2023-02-05T16:30:46;29.45;;;3.38;;
23181;SDS011;11759;51.282;6.642;2023-02-05T16:33:20;28.83;;;3.22;;
23181;SDS011;11759;51.282;6.642;2023-02-05T16:36:02;18.23;;;2.75;;
23181;SDS011;11759;51.282;6.642;2023-02-05T16:38:30;25.35;;;3.75;;
23181;SDS011;11759;51.282;6.642;2023-02-05T16:40:58;27.17;;;3.60;;
23181;SDS011;11759;51.282;6.642;2023-02-05T16:48:33;31.10;;;3.00;;
23181;SDS011;11759;51.282;6.642;2023-02-05T16:51:02;25.48;;;3.90;;
23181;SDS011;11759;51.282;6.642;2023-02-05T16:53:33;18.23;;;2.83;;
23181;SDS011;11759;51.282;6.642;2023-02-05T16:56:12;21.15;;;3.50;;
23181;SDS011;11759;51.282;6.642;2023-02-05T17:01:11;16.70;;;4.20;;
23181;SDS011;11759;51.282;6.642;2023-02-05T17:03:38;29.95;;;3.67;;
23181;SDS011;11759;51.282;6.642;2023-02-05T17:06:10;21.30;;;3.45;;
23181;SDS011;11759;51.282;6.642;2023-02-05T17:08:38;31.55;;;3.75;;
23181;SDS011;11759;51.282;6.642;2023-02-05T17:11:06;22.75;;;3.67;;
23181;SDS011;11759;51.282;6.642;2023-02-05T17:14:08;20.50;;;2.60;;
23181;SDS011;11759;51.282;6.642;2023-02-05T17:16:40;26.23;;;3.33;;
23181;SDS011;11759;51.282;6.642;2023-02-05T17:19:20;27.58;;;3.55;;
23181;SDS011;11759;51.282;6.642;2023-02-05T17:24:40;24.98;;;3.80;;
23181;SDS011;11759;51.282;6.642;2023-02-05T17:27:10;23.10;;;3.75;;
23181;SDS011;11759;51.282;6.642;2023-02-05T17:29:41;27.77;;;3.30;;
23181;SDS011;11759;51.282;6.642;2023-02-05T17:32:14;17.63;;;3.10;;
23181;SDS011;11759;51.282;6.642;2023-02-05T17:34:42;29.85;;;4.47;;
23181;SDS011;11759;51.282;6.642;2023-02-05T17:37:12;18.35;;;3.40;;
23181;SDS011;11759;51.282;6.642;2023-02-05T17:39:41;16.38;;;3.33;;
23181;SDS011;11759;51.282;6.642;2023-02-05T17:42:21;23.17;;;3.95;;
23181;SDS011;11759;51.282;6.642;2023-02-05T17:44:49;42.80;;;4.13;;
23181;SDS011;11759;51.282;6.642;2023-02-05T17:47:16;28.60;;;3.55;;
23181;SDS011;11759;51.282;6.642;2023-02-05T17:49:44;21.83;;;2.83;;